Archival Weather

Chicago O'Hare International

Chicago, Illinois (KORD)

Report from: Monday, December 12, 2022 7:51 PM CST
Current time: Friday, June 21, 2024 3:40 AM CDT

Current weather – Weather history – Daily summaries
Weather forecast

Temperature3.9°C (39.0°F)
Wind chill0.2°C (32.3°F)
Dew point-2.2°C (28.0°F)
Winds 9 kts (4.6 m/s, 10.4 mph) East-Southeast (120°)
Visibility10 mi. (16.1 km)
Clouds Ceiling: Overcast 2,700 ft. (823 m)
Altimeter30.29 in.Hg (1026 mB)
Relative humidity64 %
Density altitude-1,700 ft. (-518 m)
Sea-level pressure102.6 kPa (1026 mB, 30.30 in.Hg)
Remarks Automated weather observing station with precipitation discriminator
Flight conditions Marginal Visual Meteorological Conditions
Raw dataKORD 130151Z 12009KT 10SM OVC027 04/M02 A3029 RMK AO2 SLP261 T00391022
An error has occurred. This application may no longer respond until reloaded. Reload 🗙